createdAt,value
2017-09-19T00:04:26.281Z,9.40
2017-09-19T00:09:28.889Z,9.40
2017-09-19T00:14:31.472Z,9.40
2017-09-19T00:19:34.817Z,9.30
2017-09-19T00:24:37.392Z,9.30
2017-09-19T00:29:40.012Z,9.30
2017-09-19T00:34:42.593Z,9.30
2017-09-19T00:39:45.177Z,9.30
2017-09-19T00:44:48.529Z,9.30
2017-09-19T00:49:51.101Z,9.30
2017-09-19T00:54:54.461Z,9.30
2017-09-19T00:59:57.049Z,9.20
2017-09-19T01:04:59.649Z,9.20
2017-09-19T01:10:02.216Z,9.20
2017-09-19T01:15:05.570Z,9.20
2017-09-19T01:20:08.185Z,9.20
2017-09-19T01:25:10.769Z,9.20
2017-09-19T01:30:13.361Z,9.20
2017-09-19T01:35:15.959Z,9.10
2017-09-19T01:40:18.557Z,9.10
2017-09-19T01:45:21.137Z,9.10
2017-09-19T01:50:23.754Z,9.10
2017-09-19T01:55:26.364Z,9.10
2017-09-19T02:00:28.949Z,9.00
2017-09-19T02:05:31.538Z,9.00
2017-09-19T02:10:34.132Z,9.00
2017-09-19T02:15:37.478Z,9.00
2017-09-19T02:20:40.845Z,8.90
2017-09-19T02:25:43.430Z,8.90
2017-09-19T02:30:46.006Z,8.90
2017-09-19T02:35:48.591Z,8.90
2017-09-19T02:40:51.161Z,8.80
2017-09-19T02:45:54.608Z,8.80
2017-09-19T02:50:57.947Z,8.80
2017-09-19T02:56:00.534Z,8.70
2017-09-19T03:01:03.143Z,8.70
2017-09-19T03:06:05.741Z,8.70
2017-09-19T03:11:08.368Z,8.70
2017-09-19T03:16:10.965Z,8.70
2017-09-19T03:21:14.308Z,8.70
2017-09-19T03:26:16.913Z,8.70
2017-09-19T03:31:19.501Z,8.70
2017-09-19T03:36:22.066Z,8.70
2017-09-19T03:41:24.642Z,8.70
2017-09-19T03:46:27.213Z,8.70
2017-09-19T03:51:29.788Z,8.70
2017-09-19T03:56:33.145Z,8.70
2017-09-19T04:01:35.749Z,8.60
2017-09-19T04:06:38.338Z,8.70
2017-09-19T04:11:40.911Z,8.70
2017-09-19T04:16:44.294Z,8.70
2017-09-19T04:21:47.627Z,8.70
2017-09-19T04:26:50.208Z,8.70
2017-09-19T04:31:52.797Z,8.70
2017-09-19T04:36:55.388Z,8.70
2017-09-19T04:41:57.945Z,8.70
2017-09-19T04:47:01.362Z,8.70
2017-09-19T04:52:03.930Z,8.60
2017-09-19T04:57:06.529Z,8.70
2017-09-19T05:02:09.098Z,8.70
2017-09-19T05:07:11.693Z,8.70
2017-09-19T05:12:14.274Z,8.70
2017-09-19T05:17:16.865Z,8.70
2017-09-19T05:22:20.216Z,8.70
2017-09-19T05:27:22.797Z,8.60
2017-09-19T05:32:25.409Z,8.70
2017-09-19T05:37:27.980Z,8.70
2017-09-19T05:42:30.582Z,8.70
2017-09-19T05:47:33.164Z,8.70
2017-09-19T05:52:36.525Z,8.70
2017-09-19T05:57:39.094Z,8.70
2017-09-19T06:02:42.432Z,8.80
2017-09-19T06:07:44.998Z,8.70
2017-09-19T06:12:48.362Z,8.80
2017-09-19T06:17:51.018Z,8.70
2017-09-19T06:22:54.398Z,8.80
2017-09-19T06:27:57.020Z,8.80
2017-09-19T06:32:59.617Z,8.80
2017-09-19T06:38:02.186Z,8.90
2017-09-19T06:43:04.752Z,8.90
2017-09-19T06:48:07.342Z,8.90
2017-09-19T06:53:09.948Z,9.00
2017-09-19T06:58:12.558Z,9.00
2017-09-19T07:03:15.197Z,9.00
2017-09-19T07:08:17.836Z,9.10
2017-09-19T07:13:20.418Z,9.10
2017-09-19T07:18:23.042Z,9.20
2017-09-19T07:23:25.644Z,9.20
2017-09-19T07:28:28.234Z,9.30
2017-09-19T07:33:30.842Z,9.30
2017-09-19T07:38:34.269Z,9.50
2017-09-19T07:43:36.892Z,9.50
2017-09-19T07:48:39.502Z,9.50
2017-09-19T07:53:42.142Z,9.60
2017-09-19T07:58:45.498Z,9.70
2017-09-19T08:03:48.089Z,9.70
2017-09-19T08:08:50.717Z,9.80
2017-09-19T08:13:53.304Z,9.90
2017-09-19T08:18:55.916Z,9.90
2017-09-19T08:23:58.521Z,10.00
2017-09-19T08:29:01.146Z,10.10
2017-09-19T08:34:03.749Z,10.20
2017-09-19T08:39:06.337Z,10.30
2017-09-19T08:44:08.960Z,10.40
2017-09-19T08:49:11.580Z,10.50
2017-09-19T08:54:14.190Z,10.60
2017-09-19T08:59:16.801Z,10.80
2017-09-19T09:04:19.420Z,10.90
2017-09-19T09:09:22.097Z,11.00
2017-09-19T09:14:24.733Z,11.20
2017-09-19T09:19:27.390Z,11.40
2017-09-19T09:24:30.014Z,11.60
2017-09-19T09:29:32.617Z,11.70
2017-09-19T09:34:35.222Z,11.90
2017-09-19T09:39:37.825Z,12.10
2017-09-19T09:44:40.439Z,12.30
2017-09-19T09:49:43.047Z,12.40
2017-09-19T09:54:45.670Z,12.50
2017-09-19T09:59:48.258Z,12.60
2017-09-19T10:04:50.887Z,12.80
2017-09-19T10:09:53.507Z,12.90
2017-09-19T10:14:56.122Z,13.10
2017-09-19T10:19:58.748Z,13.20
2017-09-19T10:25:01.342Z,13.30
2017-09-19T10:30:03.950Z,13.50
2017-09-19T10:35:06.586Z,13.60
2017-09-19T10:40:09.234Z,13.60
2017-09-19T10:45:11.860Z,13.70
2017-09-19T10:50:15.281Z,13.90
2017-09-19T10:55:18.684Z,14.10
2017-09-19T11:00:21.313Z,14.00
2017-09-19T11:05:25.421Z,14.20
2017-09-19T11:10:28.038Z,14.20
2017-09-19T11:15:30.654Z,14.30
2017-09-19T11:20:33.247Z,14.40
2017-09-19T11:25:35.897Z,14.50
2017-09-19T11:30:38.614Z,14.60
2017-09-19T11:35:41.622Z,14.70
2017-09-19T11:40:44.260Z,14.80
2017-09-19T11:45:46.906Z,14.90
2017-09-19T11:50:49.723Z,15.00
2017-09-19T11:55:52.387Z,15.10
2017-09-19T12:00:55.024Z,15.20
2017-09-19T12:05:57.782Z,15.30
2017-09-19T12:11:00.394Z,15.40
2017-09-19T12:16:03.085Z,15.50
2017-09-19T12:21:05.754Z,15.60
2017-09-19T12:26:09.122Z,15.70
2017-09-19T12:31:11.712Z,15.70
2017-09-19T12:36:14.342Z,15.70
2017-09-19T12:41:17.051Z,15.80
2017-09-19T12:46:19.680Z,15.90
2017-09-19T12:51:23.058Z,15.90
2017-09-19T12:56:25.647Z,15.90
2017-09-19T13:01:28.265Z,16.00
2017-09-19T13:06:30.870Z,16.00
2017-09-19T13:11:33.480Z,16.00
2017-09-19T13:16:36.140Z,16.00
2017-09-19T13:21:38.755Z,16.00
2017-09-19T13:26:41.363Z,16.00
2017-09-19T13:31:56.098Z,16.00
2017-09-19T13:36:58.731Z,15.90
2017-09-19T13:42:01.346Z,16.00
2017-09-19T13:47:04.737Z,15.90
2017-09-19T13:52:07.357Z,15.90
2017-09-19T13:57:10.531Z,16.00
2017-09-19T14:02:13.131Z,15.90
2017-09-19T14:07:15.734Z,15.90
2017-09-19T14:12:18.367Z,15.90
2017-09-19T14:17:20.986Z,15.90
2017-09-19T14:22:23.622Z,15.90
2017-09-19T14:27:26.281Z,15.90
2017-09-19T14:32:28.873Z,15.80
2017-09-19T14:42:44.687Z,15.80
2017-09-19T14:47:47.309Z,15.80
2017-09-19T14:52:49.905Z,15.70
2017-09-19T14:57:52.598Z,15.70
2017-09-19T15:02:55.219Z,15.70
2017-09-19T15:07:57.830Z,15.60
2017-09-19T15:13:00.424Z,15.60
2017-09-19T15:18:03.018Z,15.60
2017-09-19T15:23:05.622Z,15.50
2017-09-19T15:28:08.216Z,15.50
2017-09-19T15:33:12.663Z,15.50
2017-09-19T15:38:15.371Z,15.40
2017-09-19T15:43:17.966Z,15.40
2017-09-19T15:48:20.580Z,15.40
2017-09-19T15:53:23.218Z,15.30
2017-09-19T15:58:25.815Z,15.30
2017-09-19T16:03:28.426Z,15.20
2017-09-19T16:08:31.052Z,15.20
2017-09-19T16:13:34.038Z,15.10
2017-09-19T16:18:36.654Z,15.10
2017-09-19T16:23:39.366Z,15.00
2017-09-19T16:28:42.001Z,14.90
2017-09-19T16:33:45.393Z,14.80
2017-09-19T16:44:00.738Z,14.60
2017-09-19T16:49:03.350Z,14.60
2017-09-19T16:54:05.972Z,14.50
2017-09-19T16:59:08.624Z,14.40
2017-09-19T17:04:11.239Z,14.30
2017-09-19T17:09:13.845Z,14.20
2017-09-19T17:14:17.283Z,14.10
2017-09-19T17:19:19.894Z,14.10
2017-09-19T17:24:22.494Z,14.00
2017-09-19T17:29:25.096Z,13.90
2017-09-19T17:34:27.693Z,13.80
2017-09-19T17:39:30.346Z,13.70
2017-09-19T17:44:32.963Z,13.60
2017-09-19T17:49:36.356Z,13.50
2017-09-19T17:54:38.987Z,13.50
2017-09-19T17:59:41.622Z,13.50
2017-09-19T18:04:44.230Z,13.30
2017-09-19T18:09:46.822Z,13.30
2017-09-19T18:14:49.431Z,13.20
2017-09-19T18:19:52.083Z,13.20
2017-09-19T18:24:55.432Z,13.00
2017-09-19T18:29:58.018Z,13.00
2017-09-19T18:35:00.630Z,12.90
2017-09-19T18:40:03.266Z,12.90
2017-09-19T18:45:05.967Z,12.80
2017-09-19T18:50:09.337Z,12.60
2017-09-19T18:55:11.957Z,12.60
2017-09-19T19:00:14.601Z,12.50
2017-09-19T19:05:17.192Z,12.40
2017-09-19T19:10:19.781Z,12.30
2017-09-19T19:15:22.406Z,12.30
2017-09-19T19:20:25.020Z,12.20
2017-09-19T19:25:30.235Z,12.00
2017-09-19T19:30:32.835Z,12.00
2017-09-19T19:35:35.448Z,12.00
2017-09-19T19:40:38.052Z,11.90
2017-09-19T19:45:40.699Z,11.80
2017-09-19T19:50:43.348Z,11.80
2017-09-19T19:55:45.946Z,11.70
2017-09-19T20:00:48.591Z,11.60
2017-09-19T20:05:51.974Z,11.50
2017-09-19T20:10:54.598Z,11.40
2017-09-19T20:15:57.217Z,11.40
2017-09-19T20:20:59.837Z,11.30
2017-09-19T20:26:02.466Z,11.30
2017-09-19T20:31:05.052Z,11.20
2017-09-19T20:36:07.642Z,11.10
2017-09-19T20:41:10.238Z,11.10
2017-09-19T20:46:12.856Z,11.00
2017-09-19T20:51:15.440Z,10.90
2017-09-19T20:56:18.070Z,10.90
2017-09-19T21:01:20.654Z,10.80
2017-09-19T21:06:29.377Z,10.80
2017-09-19T21:11:37.738Z,10.70
2017-09-19T21:16:45.974Z,10.60
2017-09-19T21:21:48.578Z,10.60
2017-09-19T21:26:51.169Z,10.50
2017-09-19T21:31:53.782Z,10.50
2017-09-19T21:36:56.367Z,10.50
2017-09-19T21:41:58.951Z,10.50
2017-09-19T21:47:01.564Z,10.40
2017-09-19T21:56:58.375Z,10.40
2017-09-19T22:02:00.967Z,10.40
2017-09-19T22:07:03.569Z,10.30
2017-09-19T22:12:06.133Z,10.30
2017-09-19T22:17:08.730Z,10.30
2017-09-19T22:22:11.326Z,10.20
2017-09-19T22:27:13.913Z,10.20
2017-09-19T22:32:16.537Z,10.20
2017-09-19T22:37:19.133Z,10.20
2017-09-19T22:42:21.738Z,10.10
2017-09-19T22:47:24.304Z,10.10
2017-09-19T22:52:27.670Z,10.10
2017-09-19T22:57:30.285Z,10.10
2017-09-19T23:02:32.896Z,10.10
2017-09-19T23:07:36.286Z,10.00
2017-09-19T23:12:38.895Z,10.00
2017-09-19T23:17:41.497Z,10.00
2017-09-19T23:22:44.096Z,10.00
2017-09-19T23:27:46.701Z,10.10
2017-09-19T23:32:49.289Z,10.10
2017-09-19T23:37:51.885Z,10.10
2017-09-19T23:42:54.520Z,10.10
2017-09-19T23:47:57.096Z,10.10
2017-09-19T23:52:59.677Z,10.10
2017-09-19T23:58:02.260Z,10.10
